Latest Weather Observations for Penrith

IDN60801

Issued at 5:52 pm EDT Tuesday 26 March 2019 (issued every 10 minutes, with the page automatically refreshed every 10 minutes)

About weather observations | Map of weather stations | Latest weather observations for NSW | Other Formats
Station Details ID: 067113 Name: PENRITH LAKES AWS Lat: -33.72 Lon: 150.68 Height: 24.7 m
Data from the previous 72 hours. | See also: Recent months at Penrith
Date/Time
EDT
Temp
°C
App
Temp
°C
Dew
Point
°C
Rel
Hum
%
Delta-T
°C
Wind Press
QNH
hPa
Press
MSL
hPa
Rain since
9am
mm
Dir  Spd
km/h
Gust
km/h
Spd
kts
Gust
kts
26/05:30pm 25.4 22.6 7.1 31 9.6 SSE 11 17 6 9 - - 0.0
26/05:00pm 26.0 23.7 7.6 31 9.8 S 9 13 5 7 - - 0.0
26/04:30pm 26.1 23.7 7.2 30 10.0 S 9 15 5 8 - - 0.0
26/04:00pm 26.5 24.5 7.0 29 10.3 SW 7 15 4 8 - - 0.0
26/03:30pm 25.8 23.9 7.4 31 9.7 SE 7 13 4 7 - - 0.0
26/03:00pm 25.3 22.3 7.9 33 9.3 ESE 13 20 7 11 - - 0.0
26/02:30pm 25.3 23.6 7.4 32 9.5 SSE 6 15 3 8 - - 0.0
26/02:00pm 25.0 22.9 8.1 34 9.0 S 9 15 5 8 - - 0.0
26/01:30pm 24.7 23.0 8.2 35 8.8 ESE 7 11 4 6 - - 0.0
26/01:00pm 24.3 22.6 7.4 34 8.9 SSW 6 11 3 6 - - 0.0
26/12:30pm 24.0 22.1 7.6 35 8.6 SSE 7 11 4 6 - - 0.0
26/12:00pm 23.4 21.6 7.1 35 8.5 WSW 6 13 3 7 - - 0.0
26/11:30am 23.1 21.4 7.6 37 8.1 S 6 11 3 6 - - 0.0
26/11:00am 22.4 18.7 7.8 39 7.6 WSW 17 24 9 13 - - 0.0
26/10:30am 21.4 20.7 11.4 53 5.6 NE 6 11 3 6 - - 0.0
26/10:00am 20.9 20.4 12.8 60 4.6 SSE 7 11 4 6 - - 0.0
26/09:30am 20.2 20.4 13.2 64 4.0 ESE 4 6 2 3 - - 0.0
26/09:00am 18.7 18.8 13.8 73 2.8 SE 6 7 3 4 - - 0.6
26/08:30am 17.9 17.6 12.8 72 2.9 WNW 6 7 3 4 - - 0.6
26/08:00am 16.9 17.9 13.2 79 2.1 CALM 0 0 0 0 - - 0.6
26/07:30am 15.3 14.7 12.4 83 1.6 NW 7 9 4 5 - - 0.6
26/07:00am 15.4 15.7 12.3 82 1.7 SW 2 7 1 4 - - 0.6
26/06:30am 15.8 16.7 12.9 83 1.6 CALM 0 2 0 1 - - 0.6
26/06:00am 16.4 16.5 12.8 79 2.0 SSE 4 11 2 6 - - 0.6
26/05:30am 16.6 16.5 13.3 81 1.9 WSW 6 9 3 5 - - 0.6
26/05:00am 17.1 17.0 13.4 79 2.1 SW 6 11 3 6 - - 0.6
26/04:30am 17.1 17.9 14.7 86 1.4 WSW 4 6 2 3 - - 0.6
26/04:00am 17.8 19.3 15.6 87 1.3 WNW 2 7 1 4 - - 0.6
26/03:30am 18.8 21.5 17.8 94 0.6 CALM 0 0 0 0 - - 0.6
26/03:00am 19.3 22.3 18.5 95 0.5 CALM 0 0 0 0 - - 0.6
26/02:30am 19.3 21.1 18.3 94 0.6 SSE 6 7 3 4 - - 0.6
26/02:00am 19.4 21.8 18.9 97 0.3 ESE 4 6 2 3 - - 0.6
26/01:30am 19.5 21.0 18.8 96 0.4 SW 9 13 5 7 - - 0.6
26/01:00am 19.8 21.9 18.1 90 1.1 SW 4 9 2 5 - - 0.6
26/12:30am 19.8 22.0 19.5 98 0.2 N 7 11 4 6 - - 0.6
26/12:00am 19.7 21.3 19.2 97 0.3 N 9 9 5 5 - - 0.6
 
Date/Time
EDT
Temp
°C
App
Temp
°C
Dew
Point
°C
Rel
Hum
%
Delta-T
°C
Wind Press
QNH
hPa
Press
MSL
hPa
Rain since
9am
mm
Dir  Spd
km/h
Gust
km/h
Spd
kts
Gust
kts
25/11:30pm 20.1 21.9 18.8 92 0.8 NW 7 9 4 5 - - 0.6
25/11:00pm 20.2 23.4 19.7 97 0.3 ENE 2 6 1 3 - - 0.6
25/10:30pm 20.9 23.7 19.7 93 0.8 SSW 4 7 2 4 - - 0.6
25/10:00pm 20.7 23.0 19.9 95 0.5 SSE 7 7 4 4 - - 0.6
25/09:30pm 21.3 22.0 19.6 90 1.1 S 15 26 8 14 - - 0.4
25/09:00pm 22.4 25.2 20.5 89 1.2 SSW 6 9 3 5 - - 0.2
25/08:30pm 22.4 25.6 20.5 89 1.2 NNW 4 7 2 4 - - 0.2
25/08:00pm 22.4 25.2 20.5 89 1.2 NNW 6 6 3 3 - - 0.2
25/07:30pm 23.0 25.8 20.5 86 1.6 NNW 6 9 3 5 - - 0.2
25/07:00pm 23.4 25.6 20.5 84 1.9 N 9 11 5 6 - - 0.2
25/06:30pm 24.2 26.8 20.5 80 2.4 NNW 7 13 4 7 - - 0.2
25/06:00pm 24.1 27.2 21.0 83 2.0 N 6 9 3 5 - - 0.2
25/05:30pm 24.7 28.6 21.2 81 2.3 NNW 2 6 1 3 - - 0.2
25/05:00pm 24.3 27.7 21.6 85 1.8 W 6 7 3 4 - - 0.2
25/04:30pm 24.1 27.8 22.2 89 1.3 NE 6 7 3 4 - - 0.2
25/04:00pm 23.8 27.3 21.9 89 1.3 N 6 9 3 5 - - 0.2
25/03:30pm 23.4 26.0 22.0 92 0.9 NNE 11 13 6 7 - - 0.2
25/03:00pm 23.2 26.5 21.8 92 0.9 N 7 11 4 6 - - 0.2
25/02:30pm 22.6 25.7 21.4 93 0.8 N 7 9 4 5 - - 0.2
25/02:00pm 22.1 25.6 21.8 98 0.2 NNW 6 9 3 5 - - 0.2
25/01:30pm 21.5 24.5 21.2 98 0.2 N 7 11 4 6 - - 0.2
25/01:00pm 21.2 24.0 20.9 98 0.2 N 7 11 4 6 - - 0.2
25/12:30pm 21.0 23.9 20.7 98 0.2 NNE 6 9 3 5 - - 0.2
25/12:00pm 20.7 23.3 20.4 98 0.2 N 7 11 4 6 - - 0.2
25/11:30am 20.3 22.7 20.0 98 0.2 N 7 13 4 7 - - 0.2
25/11:00am 20.1 22.0 19.8 98 0.2 N 9 11 5 6 - - 0.2
25/10:30am 19.9 22.1 19.6 98 0.2 NNE 7 11 4 6 - - 0.2
25/10:00am 19.7 21.0 19.4 98 0.2 N 11 15 6 8 - - 0.2
25/09:30am 19.5 20.8 19.2 98 0.2 N 11 15 6 8 - - 0.2
25/09:00am 19.5 19.6 19.2 98 0.2 N 17 20 9 11 - - 8.8
25/08:30am 19.5 20.8 19.2 98 0.2 NNE 11 13 6 7 - - 8.8
25/08:00am 19.5 21.1 19.2 98 0.2 N 9 13 5 7 - - 8.6
25/07:30am 19.5 21.5 19.2 98 0.2 NNE 7 9 4 5 - - 7.8
25/07:00am 20.0 21.8 18.3 90 1.1 WSW 6 11 3 6 - - 7.6
25/06:30am 20.9 19.2 17.3 80 2.2 W 22 33 12 18 - - 6.2
25/06:00am 23.6 23.5 17.8 70 3.6 W 15 30 8 16 - - 5.2
25/05:30am 21.9 24.5 20.0 89 1.2 WSW 6 7 3 4 - - 5.2
25/05:00am 22.6 24.8 19.2 81 2.2 SSE 6 9 3 5 - - 5.2
25/04:30am 22.8 25.1 19.4 81 2.2 WSW 6 9 3 5 - - 5.2
25/04:00am 22.2 25.1 19.9 87 1.5 ENE 4 7 2 4 - - 5.2
25/03:30am 22.4 25.3 20.7 90 1.1 NW 6 13 3 7 - - 5.2
25/03:00am 21.8 24.6 21.5 98 0.2 WSW 9 13 5 7 - - 5.2
25/02:30am 21.6 24.9 21.4 99 0.1 ENE 6 6 3 3 - - 5.2
25/02:00am 21.9 26.5 21.7 99 0.1 CALM 0 0 0 0 - - 5.2
25/01:30am 21.7 26.1 21.4 98 0.2 CALM 0 0 0 0 - - 5.2
25/01:00am 21.8 26.3 21.5 98 0.2 CALM 0 0 0 0 - - 5.2
25/12:30am 22.0 26.2 21.7 98 0.2 WNW 2 4 1 2 - - 5.2
25/12:00am 22.1 25.6 21.8 98 0.2 N 6 7 3 4 - - 5.2
 
Date/Time
EDT
Temp
°C
App
Temp
°C
Dew
Point
°C
Rel
Hum
%
Delta-T
°C
Wind Press
QNH
hPa
Press
MSL
hPa
Rain since
9am
mm
Dir  Spd
km/h
Gust
km/h
Spd
kts
Gust
kts
24/11:30pm 22.2 26.1 21.9 98 0.2 NNE 4 6 2 3 - - 5.2
24/11:00pm 22.3 25.9 22.0 98 0.2 NNE 6 7 3 4 - - 5.2
24/10:30pm 22.3 26.3 22.0 98 0.2 NNE 4 7 2 4 - - 5.2
24/10:00pm 22.1 25.6 21.9 99 0.1 N 6 6 3 3 - - 5.2
24/09:30pm 22.1 26.0 21.8 98 0.2 N 4 6 2 3 - - 5.2
24/09:00pm 22.1 26.7 21.8 98 0.2 CALM 0 0 0 0 - - 5.2
24/08:30pm 22.3 25.9 22.0 98 0.2 N 6 7 3 4 - - 5.2
24/08:00pm 22.1 25.6 21.8 98 0.2 N 6 7 3 4 - - 5.2
24/07:30pm 22.0 26.6 21.7 98 0.2 CALM 0 0 0 0 - - 5.2
24/07:00pm 21.9 25.7 21.6 98 0.2 S 4 6 2 3 - - 5.2
24/06:30pm 22.3 27.0 22.0 98 0.2 CALM 0 4 0 2 - - 5.2
24/06:00pm 22.4 25.9 21.9 97 0.3 NNW 6 9 3 5 - - 5.2
24/05:30pm 22.9 26.6 21.4 91 1.0 SSW 4 9 2 5 - - 1.4
24/05:00pm 24.1 24.4 20.4 80 2.4 WSW 19 32 10 17 - - 1.0
24/04:59pm 24.5 25.2 20.4 78 2.7 WSW 17 32 9 17 - - 0.6
24/04:30pm 29.6 31.4 18.7 52 7.0 SW 7 9 4 5 - - 0.2
24/04:00pm 30.6 32.8 19.3 51 7.4 SW 6 9 3 5 - - 0.2
24/03:30pm 30.8 32.4 19.2 50 7.6 S 9 15 5 8 - - 0.2
24/03:00pm 31.6 33.0 19.6 49 7.9 S 11 15 6 8 - - 0.2
24/02:30pm 31.7 33.3 20.0 50 7.7 SSW 11 17 6 9 - - 0.2
24/02:00pm 31.2 33.3 20.2 52 7.3 S 9 15 5 8 - - 0.2
24/01:30pm 30.9 32.6 20.2 53 7.1 S 11 15 6 8 - - 0.2
24/01:00pm 31.4 35.0 23.0 61 5.8 SSE 9 20 5 11 - - 0.2
24/12:30pm 30.4 34.4 22.8 64 5.2 SE 6 9 3 5 - - 0.2
24/12:00pm 29.9 35.0 23.3 67 4.5 E 2 9 1 5 - - 0.2
24/11:30am 28.3 32.4 22.3 70 4.1 ENE 4 6 2 3 - - 0.2
24/11:00am 26.9 31.5 22.5 77 3.0 NE 2 6 1 3 - - 0.2
24/10:30am 25.2 29.9 22.7 86 1.7 NW 2 6 1 3 - - 0.2
24/10:00am 24.6 29.3 22.7 89 1.3 NE 2 7 1 4 - - 0.2
24/09:30am 23.4 27.9 22.2 93 0.8 NE 2 4 1 2 - - 0.0
24/09:00am 21.7 25.7 21.4 98 0.2 NNW 2 2 1 1 - - 2.2
24/08:30am 20.6 24.5 20.3 98 0.2 CALM 0 2 0 1 - - 2.2
24/08:00am 20.1 23.3 19.8 98 0.2 NE 2 6 1 3 - - 2.2
24/07:30am 19.7 22.4 19.4 98 0.2 S 4 6 2 3 - - 2.2
24/07:00am 19.7 22.0 19.4 98 0.2 SSW 6 7 3 4 - - 2.2
24/06:30am 19.8 22.5 19.5 98 0.2 SSW 4 6 2 3 - - 2.2
24/06:00am 20.0 23.6 19.8 99 0.1 CALM 0 0 0 0 - - 2.2
24/05:30am 19.8 23.3 19.6 99 0.1 CALM 0 0 0 0 - - 2.2
24/05:00am 20.0 23.6 19.8 99 0.1 CALM 0 0 0 0 - - 2.2
24/04:30am 19.8 22.9 19.6 99 0.1 SSW 2 4 1 2 - - 2.2
24/04:00am 19.9 22.7 19.7 99 0.1 SSE 4 6 2 3 - - 2.2
24/03:30am 20.1 23.4 19.9 99 0.1 SSE 2 4 1 2 - - 2.2
24/03:00am 20.1 23.4 19.9 99 0.1 NE 2 6 1 3 - - 2.2
24/02:30am 20.4 23.5 20.2 99 0.1 N 4 4 2 2 - - 2.2
24/02:00am 20.4 24.2 20.2 99 0.1 CALM 0 0 0 0 - - 2.2
24/01:30am 20.7 23.9 20.5 99 0.1 SE 4 6 2 3 - - 2.2
24/01:00am 20.8 24.4 20.6 99 0.1 SE 2 4 1 2 - - 2.2
24/12:30am 21.0 25.1 20.8 99 0.1 CALM 0 0 0 0 - - 2.2
24/12:00am 20.9 24.9 20.6 98 0.2 CALM 0 0 0 0 - - 2.2
 
Date/Time
EDT
Temp
°C
App
Temp
°C
Dew
Point
°C
Rel
Hum
%
Delta-T
°C
Wind Press
QNH
hPa
Press
MSL
hPa
Rain since
9am
mm
Dir  Spd
km/h
Gust
km/h
Spd
kts
Gust
kts
23/11:30pm 21.4 24.6 21.2 99 0.1 N 6 7 3 4 - - 2.2
23/11:00pm 21.4 23.6 21.1 98 0.2 NNE 11 13 6 7 - - 2.2
23/10:30pm 22.0 24.1 21.7 98 0.2 NNW 13 17 7 9 - - 2.2
23/10:00pm 21.4 24.9 21.1 98 0.2 NNW 4 7 2 4 - - 2.2
23/09:30pm 21.7 22.9 21.4 98 0.2 N 17 20 9 11 - - 2.2
23/09:00pm 22.1 26.0 21.8 98 0.2 NE 4 7 2 4 - - 2.2
23/08:30pm 22.3 24.7 21.6 96 0.5 S 11 17 6 9 - - 1.6
23/08:00pm 23.3 26.5 21.6 90 1.1 SSW 7 11 4 6 - - 0.6
23/07:30pm 23.4 26.6 21.3 88 1.4 ESE 6 7 3 4 - - 0.6
23/07:00pm 25.3 28.1 20.5 75 3.1 WSW 6 11 3 6 - - 0.0
23/06:30pm 25.7 28.5 20.5 73 3.4 S 6 9 3 5 - - 0.0
23/06:00pm 26.4 28.4 20.0 68 4.2 SSW 9 13 5 7 - - 0.0

Other formats

Comma delimited format used in spreadsheet applications
http://www.bom.gov.au/fwo/IDN60801/IDN60801.94763.axf

JavaScript Object Notation format (JSON) in row-major order
http://www.bom.gov.au/fwo/IDN60801/IDN60801.94763.json

Data quality

Most of these data are generated automatically and are frequently updated. Quality checks on data are not normally performed. It is possible for incorrect values to appear. Refer to information at About Latest Weather Observations and please check the disclaimer before using these data.